Terminal Aerodrome Forecast
Issued by NWS Charleston, WV

Current Version | Previous Version | Graphics & Text | Print | Product List | Glossary On
Versions: 1 2 3 4 5 6 7 8 9 10 11 12 13 14 15 16 17 18 19 20 21 22 23 24 25 26 27 28 29 30 31 32 33
000
FTUS41 KRLX 280300 AAB
TAFCRW
TAF AMD
KCRW 280314Z 2803/2824 24005KT P6SM VCTS FEW025 BKN050CB BKN100
      TEMPO 2803/2804 2SM -TSRA BKN025CB
     FM280400 26006KT P6SM BKN035
     FM280900 26006KT P6SM BKN025
     FM281700 29008KT P6SM BKN035=

USA.gov is the U.S. government's official web portal to all federal, state and local government web resources and services.